Check out our new PWSWeather beta!
PWSweather.com
Personal Weather Stations
Station Observations
FAUSKE
Nordland, Norway, FauskeNO 8200

Nordland, NorwayFauskeNO 8200

Lat: 67.2607586, Lon: 15.4114204

Elevation: 40

Station Type: Davis Vantage PRO2

http://www.bjornli.net/weather.html

High Low Average
Temperature 31.0°F-0.6°C 24.2°F-4.3°C 27.2°F-2.7°C
Dew Point 27.9°F-2.3°C 18.4°F-7.6°C 23.7°F-4.6°C
Winds 12.0 mph 19.3 kmh Calm Calm 3.0 mph SE4.8 kmh SE
Wind Gusts 14.0 mph22.5 kmh -- 5.0 mph8.0 kmh
Humidity 92% 77% 86%
Pressure 29.43 in996.6 mb 29.26 in990.9 mb -
Precipitation 0.00 in0.0 mm - -
Hour Temp Dew Point Humidity Winds Wind Gusts Pressure Precip Precip Rate Daily Precip Total
12:00 AM 30.2°F-1.0°C 27.9°F-2.3°C 91% Calm Calm -- 29.26 in990.9 mb 0.00 in0.0 mm 0.00 in0.0 mm 0.00 in0.0 mm
12:10 AM 30.2°F-1.0°C 27.9°F-2.3°C 91% Calm Calm 9.0 mph14.5 kmh 29.26 in990.9 mb 0.00 in0.0 mm 0.00 in0.0 mm 0.00 in0.0 mm
12:30 AM 29.4°F-1.4°C 26.8°F-2.9°C 90% Calm Calm -- 29.28 in991.5 mb 0.00 in0.0 mm 0.00 in0.0 mm 0.00 in0.0 mm
12:40 AM 29.1°F-1.6°C 26.5°F-3.1°C 90% 9.0 mph SW14.5 kmh SW 11.0 mph17.7 kmh 29.28 in991.5 mb 0.00 in0.0 mm 0.00 in0.0 mm 0.00 in0.0 mm
01:00 AM 29.5°F-1.4°C 26.7°F-2.9°C 89% 5.0 mph W8.0 kmh W 5.0 mph8.0 kmh 29.28 in991.5 mb 0.00 in0.0 mm 0.00 in0.0 mm 0.00 in0.0 mm
01:10 AM 29.2°F-1.6°C 26.1°F-3.3°C 88% 2.0 mph WSW3.2 kmh WSW 11.0 mph17.7 kmh 29.29 in991.9 mb 0.00 in0.0 mm 0.00 in0.0 mm 0.00 in0.0 mm
01:30 AM 28.4°F-2.0°C 25.3°F-3.7°C 88% 4.0 mph WSW6.4 kmh WSW 6.0 mph9.7 kmh 29.30 in992.2 mb 0.00 in0.0 mm 0.00 in0.0 mm 0.00 in0.0 mm
01:40 AM 28.4°F-2.0°C 25.3°F-3.7°C 88% 2.0 mph W3.2 kmh W 9.0 mph14.5 kmh 29.30 in992.2 mb 0.00 in0.0 mm 0.00 in0.0 mm 0.00 in0.0 mm
02:00 AM 28.9°F-1.7°C 25.8°F-3.4°C 88% 5.0 mph WSW8.0 kmh WSW 6.0 mph9.7 kmh 29.31 in992.6 mb 0.00 in0.0 mm 0.00 in0.0 mm 0.00 in0.0 mm
02:10 AM 28.9°F-1.7°C 25.8°F-3.4°C 88% Calm Calm 10.0 mph16.1 kmh 29.31 in992.6 mb 0.00 in0.0 mm 0.00 in0.0 mm 0.00 in0.0 mm
02:30 AM 27.7°F-2.4°C 24.9°F-3.9°C 89% Calm Calm -- 29.32 in992.9 mb 0.00 in0.0 mm 0.00 in0.0 mm 0.00 in0.0 mm
02:40 AM 27.4°F-2.6°C 24.9°F-3.9°C 90% Calm Calm 2.0 mph3.2 kmh 29.32 in992.9 mb 0.00 in0.0 mm 0.00 in0.0 mm 0.00 in0.0 mm
03:00 AM 25.9°F-3.4°C 23.4°F-4.8°C 90% Calm Calm -- 29.32 in992.9 mb 0.00 in0.0 mm 0.00 in0.0 mm 0.00 in0.0 mm
03:10 AM 25.7°F-3.5°C 23.4°F-4.8°C 91% Calm Calm -- 29.32 in992.9 mb 0.00 in0.0 mm 0.00 in0.0 mm 0.00 in0.0 mm
03:30 AM 26.7°F-2.9°C 24.7°F-4.1°C 92% Calm Calm -- 29.33 in993.2 mb 0.00 in0.0 mm 0.00 in0.0 mm 0.00 in0.0 mm
03:40 AM 27.1°F-2.7°C 25.1°F-3.8°C 92% Calm Calm -- 29.33 in993.2 mb 0.00 in0.0 mm 0.00 in0.0 mm 0.00 in0.0 mm
04:00 AM 27.1°F-2.7°C 24.8°F-4.0°C 91% Calm Calm -- 29.33 in993.2 mb 0.00 in0.0 mm 0.00 in0.0 mm 0.00 in0.0 mm
04:10 AM 26.8°F-2.9°C 24.5°F-4.2°C 91% Calm Calm -- 29.33 in993.2 mb 0.00 in0.0 mm 0.00 in0.0 mm 0.00 in0.0 mm
04:30 AM 25.9°F-3.4°C 23.4°F-4.8°C 90% 5.0 mph W8.0 kmh W 5.0 mph8.0 kmh 29.34 in993.6 mb 0.00 in0.0 mm 0.00 in0.0 mm 0.00 in0.0 mm
04:40 AM 26.6°F-3.0°C 24.1°F-4.4°C 90% Calm Calm 7.0 mph11.3 kmh 29.34 in993.6 mb 0.00 in0.0 mm 0.00 in0.0 mm 0.00 in0.0 mm
05:00 AM 26.3°F-3.2°C 23.8°F-4.6°C 90% Calm Calm -- 29.34 in993.6 mb 0.00 in0.0 mm 0.00 in0.0 mm 0.00 in0.0 mm
05:10 AM 26.7°F-2.9°C 24.2°F-4.3°C 90% Calm Calm 7.0 mph11.3 kmh 29.35 in993.9 mb 0.00 in0.0 mm 0.00 in0.0 mm 0.00 in0.0 mm
05:30 AM 27.8°F-2.3°C 25.5°F-3.6°C 91% Calm Calm -- 29.35 in993.9 mb 0.00 in0.0 mm 0.00 in0.0 mm 0.00 in0.0 mm
05:40 AM 28.3°F-2.1°C 26.0°F-3.3°C 91% Calm Calm 9.0 mph14.5 kmh 29.35 in993.9 mb 0.00 in0.0 mm 0.00 in0.0 mm 0.00 in0.0 mm
06:00 AM 28.0°F-2.2°C 26.0°F-3.3°C 92% Calm Calm -- 29.36 in994.2 mb 0.00 in0.0 mm 0.00 in0.0 mm 0.00 in0.0 mm
06:10 AM 27.7°F-2.4°C 25.7°F-3.5°C 92% Calm Calm 1.0 mph1.6 kmh 29.36 in994.2 mb 0.00 in0.0 mm 0.00 in0.0 mm 0.00 in0.0 mm
06:30 AM 26.3°F-3.2°C 24.0°F-4.4°C 91% Calm Calm -- 29.36 in994.2 mb 0.00 in0.0 mm 0.00 in0.0 mm 0.00 in0.0 mm
06:40 AM 25.8°F-3.4°C 23.5°F-4.7°C 91% 2.0 mph W3.2 kmh W 5.0 mph8.0 kmh 29.36 in994.2 mb 0.00 in0.0 mm 0.00 in0.0 mm 0.00 in0.0 mm
07:00 AM 26.3°F-3.2°C 23.8°F-4.6°C 90% Calm Calm 2.0 mph3.2 kmh 29.37 in994.6 mb 0.00 in0.0 mm 0.00 in0.0 mm 0.00 in0.0 mm
07:10 AM 26.4°F-3.1°C 23.9°F-4.5°C 90% Calm Calm 2.0 mph3.2 kmh 29.37 in994.6 mb 0.00 in0.0 mm 0.00 in0.0 mm 0.00 in0.0 mm
07:30 AM 26.3°F-3.2°C 23.8°F-4.6°C 90% Calm Calm 3.0 mph4.8 kmh 29.38 in994.9 mb 0.00 in0.0 mm 0.00 in0.0 mm 0.00 in0.0 mm
07:40 AM 26.3°F-3.2°C 24.0°F-4.4°C 91% Calm Calm 4.0 mph6.4 kmh 29.38 in994.9 mb 0.00 in0.0 mm 0.00 in0.0 mm 0.00 in0.0 mm
08:00 AM 25.3°F-3.7°C 23.1°F-4.9°C 91% Calm Calm -- 29.38 in994.9 mb 0.00 in0.0 mm 0.00 in0.0 mm 0.00 in0.0 mm
08:09 AM 24.8°F-4.0°C 22.6°F-5.2°C 91% Calm Calm -- 29.38 in994.9 mb 0.00 in0.0 mm 0.00 in0.0 mm 0.00 in0.0 mm
08:30 AM 24.2°F-4.3°C 22.0°F-5.6°C 91% Calm Calm -- 29.39 in995.3 mb 0.00 in0.0 mm 0.00 in0.0 mm 0.00 in0.0 mm
08:40 AM 24.5°F-4.2°C 22.5°F-5.3°C 92% Calm Calm -- 29.39 in995.3 mb 0.00 in0.0 mm 0.00 in0.0 mm 0.00 in0.0 mm
09:00 AM 26.1°F-3.3°C 24.1°F-4.4°C 92% Calm Calm -- 29.39 in995.3 mb 0.00 in0.0 mm 0.00 in0.0 mm 0.00 in0.0 mm
09:10 AM 26.5°F-3.1°C 24.5°F-4.2°C 92% Calm Calm -- 29.40 in995.6 mb 0.00 in0.0 mm 0.00 in0.0 mm 0.00 in0.0 mm
09:30 AM 26.9°F-2.8°C 24.9°F-3.9°C 92% Calm Calm -- 29.40 in995.6 mb 0.00 in0.0 mm 0.00 in0.0 mm 0.00 in0.0 mm
09:40 AM 26.8°F-2.9°C 24.8°F-4.0°C 92% Calm Calm -- 29.40 in995.6 mb 0.00 in0.0 mm 0.00 in0.0 mm 0.00 in0.0 mm
10:00 AM 26.7°F-2.9°C 24.7°F-4.1°C 92% Calm Calm -- 29.41 in995.9 mb 0.00 in0.0 mm 0.00 in0.0 mm 0.00 in0.0 mm
10:10 AM 27.1°F-2.7°C 25.1°F-3.8°C 92% Calm Calm -- 29.41 in995.9 mb 0.00 in0.0 mm 0.00 in0.0 mm 0.00 in0.0 mm
10:30 AM 28.6°F-1.9°C 26.6°F-3.0°C 92% Calm Calm -- 29.41 in995.9 mb 0.00 in0.0 mm 0.00 in0.0 mm 0.00 in0.0 mm
10:40 AM 28.0°F-2.2°C 25.7°F-3.5°C 91% Calm Calm 5.0 mph8.0 kmh 29.41 in995.9 mb 0.00 in0.0 mm 0.00 in0.0 mm 0.00 in0.0 mm
11:00 AM 26.9°F-2.8°C 24.6°F-4.1°C 91% Calm Calm -- 29.41 in995.9 mb 0.00 in0.0 mm 0.00 in0.0 mm 0.00 in0.0 mm
11:10 AM 27.7°F-2.4°C 25.7°F-3.5°C 92% Calm Calm -- 29.41 in995.9 mb 0.00 in0.0 mm 0.00 in0.0 mm 0.00 in0.0 mm
11:30 AM 30.5°F-0.8°C 27.9°F-2.3°C 90% Calm Calm -- 29.41 in995.9 mb 0.00 in0.0 mm 0.00 in0.0 mm 0.00 in0.0 mm
11:40 AM 31.0°F-0.6°C 27.9°F-2.3°C 88% Calm Calm -- 29.41 in995.9 mb 0.00 in0.0 mm 0.00 in0.0 mm 0.00 in0.0 mm
12:00 PM 30.4°F-0.9°C 27.0°F-2.8°C 87% Calm Calm -- 29.41 in995.9 mb 0.00 in0.0 mm 0.00 in0.0 mm 0.00 in0.0 mm
12:10 PM 31.0°F-0.6°C 27.3°F-2.6°C 86% Calm Calm -- 29.41 in995.9 mb 0.00 in0.0 mm 0.00 in0.0 mm 0.00 in0.0 mm
12:30 PM 30.6°F-0.8°C 26.6°F-3.0°C 85% Calm Calm -- 29.41 in995.9 mb 0.00 in0.0 mm 0.00 in0.0 mm 0.00 in0.0 mm
12:40 PM 30.2°F-1.0°C 26.2°F-3.2°C 85% Calm Calm -- 29.42 in996.3 mb 0.00 in0.0 mm 0.00 in0.0 mm 0.00 in0.0 mm
01:00 PM 28.8°F-1.8°C 25.4°F-3.7°C 87% Calm Calm -- 29.41 in995.9 mb 0.00 in0.0 mm 0.00 in0.0 mm 0.00 in0.0 mm
01:10 PM 28.9°F-1.7°C 25.5°F-3.6°C 87% Calm Calm -- 29.41 in995.9 mb 0.00 in0.0 mm 0.00 in0.0 mm 0.00 in0.0 mm
01:30 PM 29.0°F-1.7°C 25.6°F-3.6°C 87% Calm Calm -- 29.41 in995.9 mb 0.00 in0.0 mm 0.00 in0.0 mm 0.00 in0.0 mm
01:40 PM 29.2°F-1.6°C 25.8°F-3.4°C 87% Calm Calm -- 29.41 in995.9 mb 0.00 in0.0 mm 0.00 in0.0 mm 0.00 in0.0 mm
02:00 PM 29.1°F-1.6°C 25.4°F-3.7°C 86% Calm Calm -- 29.41 in995.9 mb 0.00 in0.0 mm 0.00 in0.0 mm 0.00 in0.0 mm
02:10 PM 29.0°F-1.7°C 25.4°F-3.7°C 86% Calm Calm -- 29.41 in995.9 mb 0.00 in0.0 mm 0.00 in0.0 mm 0.00 in0.0 mm
02:30 PM 29.4°F-1.4°C 25.5°F-3.6°C 85% 6.0 mph ESE9.7 kmh ESE 6.0 mph9.7 kmh 29.42 in996.3 mb 0.01 in0.3 mm 0.03 in0.8 mm 0.01 in0.3 mm
02:40 PM 29.3°F-1.5°C 25.1°F-3.8°C 84% 6.0 mph ESE9.7 kmh ESE 10.0 mph16.1 kmh 29.41 in995.9 mb 0.01 in0.3 mm 0.00 in0.0 mm 0.01 in0.3 mm
03:00 PM 28.7°F-1.8°C 24.2°F-4.3°C 83% 5.0 mph ESE8.0 kmh ESE 5.0 mph8.0 kmh 29.42 in996.3 mb 0.01 in0.3 mm 0.00 in0.0 mm 0.01 in0.3 mm
03:10 PM 28.8°F-1.8°C 24.3°F-4.3°C 83% 3.0 mph SE4.8 kmh SE 7.0 mph11.3 kmh 29.42 in996.3 mb 0.01 in0.3 mm 0.00 in0.0 mm 0.01 in0.3 mm
03:30 PM 29.0°F-1.7°C 24.5°F-4.2°C 83% 1.0 mph SE1.6 kmh SE 1.0 mph1.6 kmh 29.42 in996.3 mb 0.00 in0.0 mm 0.00 in0.0 mm 0.01 in0.3 mm
03:40 PM 29.3°F-1.5°C 24.5°F-4.2°C 82% 9.0 mph SE14.5 kmh SE 10.0 mph16.1 kmh 29.42 in996.3 mb 0.00 in0.0 mm 0.00 in0.0 mm 0.01 in0.3 mm
04:00 PM 28.7°F-1.8°C 23.9°F-4.5°C 82% 4.0 mph SE6.4 kmh SE 7.0 mph11.3 kmh 29.42 in996.3 mb 0.00 in0.0 mm 0.00 in0.0 mm 0.01 in0.3 mm
04:10 PM 28.4°F-2.0°C 23.6°F-4.7°C 82% 8.0 mph SE12.9 kmh SE 11.0 mph17.7 kmh 29.42 in996.3 mb 0.00 in0.0 mm 0.00 in0.0 mm 0.01 in0.3 mm
04:30 PM 27.9°F-2.3°C 23.4°F-4.8°C 83% 9.0 mph SE14.5 kmh SE 10.0 mph16.1 kmh 29.42 in996.3 mb 0.00 in0.0 mm 0.00 in0.0 mm 0.01 in0.3 mm
04:40 PM 27.8°F-2.3°C 23.3°F-4.8°C 83% 3.0 mph ESE4.8 kmh ESE 14.0 mph22.5 kmh 29.42 in996.3 mb 0.00 in0.0 mm 0.00 in0.0 mm 0.01 in0.3 mm
05:00 PM 27.6°F-2.4°C 23.1°F-4.9°C 83% 3.0 mph SE4.8 kmh SE 4.0 mph6.4 kmh 29.42 in996.3 mb 0.00 in0.0 mm 0.00 in0.0 mm 0.01 in0.3 mm
05:10 PM 27.5°F-2.5°C 23.0°F-5.0°C 83% 10.0 mph SE16.1 kmh SE 10.0 mph16.1 kmh 29.42 in996.3 mb 0.00 in0.0 mm 0.00 in0.0 mm 0.01 in0.3 mm
05:30 PM 27.2°F-2.7°C 22.7°F-5.2°C 83% 6.0 mph SE9.7 kmh SE 10.0 mph16.1 kmh 29.42 in996.3 mb 0.00 in0.0 mm 0.00 in0.0 mm 0.01 in0.3 mm
05:40 PM 27.2°F-2.7°C 22.7°F-5.2°C 83% 7.0 mph SE11.3 kmh SE 11.0 mph17.7 kmh 29.42 in996.3 mb 0.00 in0.0 mm 0.00 in0.0 mm 0.01 in0.3 mm
06:00 PM 27.2°F-2.7°C 22.7°F-5.2°C 83% 8.0 mph SE12.9 kmh SE 8.0 mph12.9 kmh 29.42 in996.3 mb 0.00 in0.0 mm 0.00 in0.0 mm 0.01 in0.3 mm
06:10 PM 26.9°F-2.8°C 22.4°F-5.3°C 83% 6.0 mph SE9.7 kmh SE 12.0 mph19.3 kmh 29.42 in996.3 mb 0.00 in0.0 mm 0.00 in0.0 mm 0.01 in0.3 mm
06:30 PM 26.3°F-3.2°C 21.9°F-5.6°C 83% 5.0 mph SE8.0 kmh SE 6.0 mph9.7 kmh 29.43 in996.6 mb 0.00 in0.0 mm 0.00 in0.0 mm 0.01 in0.3 mm
06:40 PM 26.1°F-3.3°C 21.7°F-5.7°C 83% 2.0 mph SE3.2 kmh SE 10.0 mph16.1 kmh 29.43 in996.6 mb 0.00 in0.0 mm 0.00 in0.0 mm 0.01 in0.3 mm
07:00 PM 25.6°F-3.6°C 21.2°F-6.0°C 83% Calm Calm -- 29.42 in996.3 mb 0.00 in0.0 mm 0.00 in0.0 mm 0.01 in0.3 mm
07:10 PM 25.7°F-3.5°C 21.3°F-5.9°C 83% 5.0 mph SE8.0 kmh SE 9.0 mph14.5 kmh 29.43 in996.6 mb 0.00 in0.0 mm 0.00 in0.0 mm 0.01 in0.3 mm
07:30 PM 25.5°F-3.6°C 20.8°F-6.2°C 82% 6.0 mph SE9.7 kmh SE 6.0 mph9.7 kmh 29.43 in996.6 mb 0.00 in0.0 mm 0.00 in0.0 mm 0.01 in0.3 mm
07:40 PM 25.5°F-3.6°C 20.5°F-6.4°C 81% 4.0 mph SE6.4 kmh SE 11.0 mph17.7 kmh 29.43 in996.6 mb 0.00 in0.0 mm 0.00 in0.0 mm 0.01 in0.3 mm
08:00 PM 25.2°F-3.8°C 19.9°F-6.7°C 80% 8.0 mph SE12.9 kmh SE 10.0 mph16.1 kmh 29.43 in996.6 mb 0.00 in0.0 mm 0.00 in0.0 mm 0.01 in0.3 mm
08:10 PM 25.1°F-3.8°C 19.5°F-6.9°C 79% 12.0 mph SE19.3 kmh SE 12.0 mph19.3 kmh 29.43 in996.6 mb 0.00 in0.0 mm 0.00 in0.0 mm 0.01 in0.3 mm
08:30 PM 25.7°F-3.5°C 19.8°F-6.8°C 78% 8.0 mph SSE12.9 kmh SSE 10.0 mph16.1 kmh 29.42 in996.3 mb 0.00 in0.0 mm 0.00 in0.0 mm 0.01 in0.3 mm
08:40 PM 25.5°F-3.6°C 19.3°F-7.1°C 77% 6.0 mph SE9.7 kmh SE 13.0 mph20.9 kmh 29.42 in996.3 mb 0.00 in0.0 mm 0.00 in0.0 mm 0.01 in0.3 mm
09:00 PM 25.5°F-3.6°C 19.6°F-6.9°C 78% 11.0 mph SE17.7 kmh SE 12.0 mph19.3 kmh 29.41 in995.9 mb 0.00 in0.0 mm 0.00 in0.0 mm 0.01 in0.3 mm
09:10 PM 25.1°F-3.8°C 19.8°F-6.8°C 80% 4.0 mph SE6.4 kmh SE 14.0 mph22.5 kmh 29.42 in996.3 mb 0.00 in0.0 mm 0.00 in0.0 mm 0.01 in0.3 mm
09:30 PM 24.7°F-4.1°C 19.4°F-7.0°C 80% 7.0 mph SE11.3 kmh SE 7.0 mph11.3 kmh 29.41 in995.9 mb 0.00 in0.0 mm 0.00 in0.0 mm 0.01 in0.3 mm
09:40 PM 24.8°F-4.0°C 19.5°F-6.9°C 80% 3.0 mph SE4.8 kmh SE 9.0 mph14.5 kmh 29.41 in995.9 mb 0.00 in0.0 mm 0.00 in0.0 mm 0.01 in0.3 mm
10:00 PM 24.7°F-4.1°C 19.4°F-7.0°C 80% 5.0 mph SE8.0 kmh SE 9.0 mph14.5 kmh 29.41 in995.9 mb 0.00 in0.0 mm 0.00 in0.0 mm 0.01 in0.3 mm
10:10 PM 24.6°F-4.1°C 19.3°F-7.1°C 80% 9.0 mph SE14.5 kmh SE 13.0 mph20.9 kmh 29.41 in995.9 mb 0.00 in0.0 mm 0.00 in0.0 mm 0.01 in0.3 mm
10:30 PM 24.6°F-4.1°C 19.3°F-7.1°C 80% 3.0 mph SE4.8 kmh SE 10.0 mph16.1 kmh 29.40 in995.6 mb 0.00 in0.0 mm 0.00 in0.0 mm 0.01 in0.3 mm
10:40 PM 24.6°F-4.1°C 19.3°F-7.1°C 80% 12.0 mph SE19.3 kmh SE 12.0 mph19.3 kmh 29.40 in995.6 mb 0.00 in0.0 mm 0.00 in0.0 mm 0.01 in0.3 mm
11:00 PM 24.7°F-4.1°C 18.8°F-7.3°C 78% 8.0 mph SE12.9 kmh SE 11.0 mph17.7 kmh 29.40 in995.6 mb 0.00 in0.0 mm 0.00 in0.0 mm 0.01 in0.3 mm
11:10 PM 24.8°F-4.0°C 18.9°F-7.3°C 78% 5.0 mph SE8.0 kmh SE 13.0 mph20.9 kmh 29.39 in995.3 mb 0.00 in0.0 mm 0.00 in0.0 mm 0.01 in0.3 mm
11:30 PM 24.8°F-4.0°C 18.6°F-7.4°C 77% 6.0 mph SE9.7 kmh SE 9.0 mph14.5 kmh 29.41 in995.9 mb 0.00 in0.0 mm 0.00 in0.0 mm 0.01 in0.3 mm
11:40 PM 24.6°F-4.1°C 18.4°F-7.6°C 77% 4.0 mph SE6.4 kmh SE 11.0 mph17.7 kmh 29.40 in995.6 mb 0.00 in0.0 mm 0.00 in0.0 mm 0.01 in0.3 mm